createdAt,value
2022-09-21T00:01:08.876Z,14.00
2022-09-21T00:03:37.596Z,14.10
2022-09-21T00:06:08.943Z,14.20
2022-09-21T00:08:37.566Z,14.20
2022-09-21T00:11:06.075Z,14.30
2022-09-21T00:13:35.088Z,14.20
2022-09-21T00:16:06.296Z,14.10
2022-09-21T00:18:35.495Z,14.00
2022-09-21T00:21:08.674Z,14.00
2022-09-21T00:23:37.608Z,13.90
2022-09-21T00:26:07.551Z,13.80
2022-09-21T00:28:36.023Z,13.80
2022-09-21T00:31:05.343Z,13.80
2022-09-21T00:33:33.507Z,13.90
2022-09-21T00:36:05.645Z,13.90
2022-09-21T00:38:36.185Z,13.90
2022-09-21T00:41:05.263Z,14.00
2022-09-21T00:43:35.334Z,14.10
2022-09-21T00:46:07.741Z,14.10
2022-09-21T00:48:35.823Z,14.10
2022-09-21T00:51:07.624Z,13.90
2022-09-21T00:53:38.971Z,13.80
2022-09-21T00:56:10.445Z,13.70
2022-09-21T00:58:42.986Z,13.70
2022-09-21T01:01:12.997Z,13.70
2022-09-21T01:03:45.744Z,13.80
2022-09-21T01:06:14.135Z,13.80
2022-09-21T01:08:45.156Z,13.70
2022-09-21T01:11:30.504Z,13.60
2022-09-21T01:14:24.283Z,13.70
2022-09-21T01:17:02.440Z,13.80
2022-09-21T01:20:05.673Z,13.70
2022-09-21T01:22:47.189Z,13.60
2022-09-21T01:25:28.040Z,13.50
2022-09-21T01:28:09.633Z,13.50
2022-09-21T01:30:43.732Z,13.50
2022-09-21T01:33:18.830Z,13.60
2022-09-21T01:35:51.296Z,13.50
2022-09-21T01:38:24.012Z,13.50
2022-09-21T01:40:55.347Z,13.60
2022-09-21T01:43:27.282Z,13.60
2022-09-21T01:45:58.327Z,13.60
2022-09-21T01:48:27.163Z,13.60
2022-09-21T01:50:57.855Z,13.50
2022-09-21T01:53:32.827Z,13.50
2022-09-21T01:56:06.046Z,13.50
2022-09-21T01:58:39.657Z,13.50
2022-09-21T02:01:11.763Z,13.50
2022-09-21T02:03:44.300Z,13.50
2022-09-21T02:06:13.369Z,13.50
2022-09-21T02:08:41.640Z,13.50
2022-09-21T02:11:13.308Z,13.40
2022-09-21T02:13:45.821Z,13.40
2022-09-21T02:16:35.641Z,13.40
2022-09-21T02:19:13.461Z,13.40
2022-09-21T02:21:52.542Z,13.30
2022-09-21T02:24:28.572Z,13.40
2022-09-21T02:27:03.874Z,13.50
2022-09-21T02:29:40.540Z,13.50
2022-09-21T02:32:13.946Z,13.60
2022-09-21T02:34:46.425Z,13.50
2022-09-21T02:37:22.357Z,13.40
2022-09-21T02:39:59.432Z,13.40
2022-09-21T02:42:30.692Z,13.30
2022-09-21T02:45:04.303Z,13.30
2022-09-21T02:47:37.607Z,13.30
2022-09-21T02:50:10.496Z,13.30
2022-09-21T02:52:41.917Z,13.20
2022-09-21T02:55:11.715Z,13.20
2022-09-21T02:57:39.759Z,13.30
2022-09-21T03:00:09.126Z,13.20
2022-09-21T03:02:40.122Z,13.30
2022-09-21T03:05:09.429Z,13.20
2022-09-21T03:07:37.487Z,13.10
2022-09-21T03:10:08.230Z,13.10
2022-09-21T03:12:36.694Z,12.90
2022-09-21T03:15:05.965Z,13.00
2022-09-21T03:17:34.866Z,13.00
2022-09-21T03:20:04.940Z,13.10
2022-09-21T03:22:32.934Z,13.20
2022-09-21T03:25:00.943Z,13.20
2022-09-21T03:27:29.555Z,13.30
2022-09-21T03:30:01.345Z,13.20
2022-09-21T03:32:30.099Z,13.10
2022-09-21T03:34:58.115Z,13.10
2022-09-21T03:37:27.474Z,13.10
2022-09-21T03:39:55.502Z,13.10
2022-09-21T03:42:23.495Z,13.10
2022-09-21T03:44:51.569Z,13.10
2022-09-21T03:47:20.798Z,13.10
2022-09-21T03:49:48.859Z,13.10
2022-09-21T03:52:16.907Z,13.00
2022-09-21T03:54:46.738Z,12.90
2022-09-21T03:57:14.741Z,12.90
2022-09-21T03:59:43.033Z,13.00
2022-09-21T04:02:11.055Z,13.00
2022-09-21T04:04:39.117Z,13.10
2022-09-21T04:07:07.135Z,13.00
2022-09-21T04:09:35.455Z,13.00
2022-09-21T04:12:05.221Z,12.80
2022-09-21T04:14:33.635Z,12.90
2022-09-21T04:17:01.642Z,12.90
2022-09-21T04:19:29.642Z,12.90
2022-09-21T04:21:57.921Z,13.00
2022-09-21T04:24:26.777Z,13.00
2022-09-21T04:26:54.797Z,12.90
2022-09-21T04:29:24.157Z,12.90
2022-09-21T04:31:52.196Z,12.90
2022-09-21T04:34:20.339Z,12.90
2022-09-21T04:36:48.364Z,12.90
2022-09-21T04:39:16.370Z,12.90
2022-09-21T04:41:44.378Z,12.80
2022-09-21T04:44:12.424Z,12.90
2022-09-21T04:46:42.387Z,12.90
2022-09-21T04:49:10.702Z,12.80
2022-09-21T04:51:39.000Z,12.80
2022-09-21T04:54:07.076Z,12.80
2022-09-21T04:56:35.519Z,12.90
2022-09-21T04:59:03.528Z,13.00
2022-09-21T05:01:31.604Z,13.10
2022-09-21T05:04:02.436Z,13.10
2022-09-21T05:06:30.783Z,13.10
2022-09-21T05:09:16.487Z,13.00
2022-09-21T05:11:44.910Z,12.90
2022-09-21T05:14:14.128Z,12.80
2022-09-21T05:16:42.167Z,12.70
2022-09-21T05:19:11.570Z,12.70
2022-09-21T05:21:39.570Z,12.60
2022-09-21T05:24:07.899Z,12.60
2022-09-21T05:26:35.963Z,12.50
2022-09-21T05:29:04.849Z,12.60
2022-09-21T05:31:40.848Z,12.60
2022-09-21T05:34:22.269Z,12.60
2022-09-21T05:37:02.966Z,12.70
2022-09-21T05:39:31.525Z,12.60
2022-09-21T05:41:59.844Z,12.60
2022-09-21T05:44:28.651Z,12.70
2022-09-21T05:47:02.618Z,12.60
2022-09-21T05:49:46.232Z,12.60
2022-09-21T05:52:22.123Z,12.60
2022-09-21T05:55:03.471Z,12.70
2022-09-21T05:57:42.090Z,12.70
2022-09-21T06:00:16.788Z,12.60
2022-09-21T06:03:06.872Z,12.60
2022-09-21T06:05:36.763Z,12.80
2022-09-21T06:08:04.988Z,12.70
2022-09-21T06:10:35.875Z,12.80
2022-09-21T06:13:04.126Z,12.80
2022-09-21T06:15:32.135Z,12.80
2022-09-21T06:18:00.214Z,12.90
2022-09-21T06:20:28.243Z,12.90
2022-09-21T06:23:02.606Z,12.90
2022-09-21T06:25:30.796Z,13.00
2022-09-21T06:28:04.379Z,13.00
2022-09-21T06:30:33.300Z,13.10
2022-09-21T06:33:02.356Z,13.10
2022-09-21T06:35:31.885Z,13.10
2022-09-21T06:38:02.055Z,13.20
2022-09-21T06:40:31.174Z,13.30
2022-09-21T06:43:00.165Z,13.30
2022-09-21T06:45:28.466Z,13.30
2022-09-21T06:47:56.553Z,13.30
2022-09-21T06:50:25.043Z,13.30
2022-09-21T06:52:53.248Z,13.30
2022-09-21T06:55:22.643Z,13.40
2022-09-21T06:57:51.570Z,13.50
2022-09-21T07:00:19.784Z,13.60
2022-09-21T07:02:48.204Z,13.70
2022-09-21T07:05:16.741Z,13.70
2022-09-21T07:07:44.764Z,13.80
2022-09-21T07:10:17.161Z,13.90
2022-09-21T07:12:49.483Z,13.90
2022-09-21T07:15:17.624Z,14.00
2022-09-21T07:17:51.721Z,14.00
2022-09-21T07:20:20.431Z,14.10
2022-09-21T07:22:48.932Z,14.10
2022-09-21T07:25:17.695Z,14.10
2022-09-21T07:27:47.634Z,14.20
2022-09-21T07:30:17.240Z,14.20
2022-09-21T07:32:45.540Z,14.30
2022-09-21T07:35:13.566Z,14.30
2022-09-21T07:37:41.714Z,14.50
2022-09-21T07:40:11.388Z,14.50
2022-09-21T07:42:39.908Z,14.60
2022-09-21T07:45:09.510Z,14.60
2022-09-21T07:47:38.997Z,14.70
2022-09-21T07:50:07.961Z,14.80
2022-09-21T07:52:36.082Z,14.80
2022-09-21T07:55:04.679Z,14.80
2022-09-21T07:57:50.503Z,14.90
2022-09-21T08:00:18.723Z,14.90
2022-09-21T08:02:48.207Z,15.00
2022-09-21T08:05:16.752Z,15.10
2022-09-21T08:07:44.862Z,15.20
2022-09-21T08:10:13.056Z,15.30
2022-09-21T08:12:41.130Z,15.30
2022-09-21T08:15:30.619Z,15.30
2022-09-21T08:18:00.792Z,15.30
2022-09-21T08:20:29.145Z,15.40
2022-09-21T08:22:57.601Z,15.50
2022-09-21T08:25:25.734Z,15.60
2022-09-21T08:27:58.035Z,15.70
2022-09-21T08:30:27.931Z,15.70
2022-09-21T08:32:56.477Z,15.80
2022-09-21T08:35:25.844Z,15.80
2022-09-21T08:37:55.230Z,15.90
2022-09-21T08:40:23.811Z,15.90
2022-09-21T08:42:59.941Z,16.00
2022-09-21T08:45:34.420Z,16.00
2022-09-21T08:48:06.739Z,16.00
2022-09-21T08:50:42.037Z,16.10
2022-09-21T08:53:15.582Z,16.10
2022-09-21T08:55:43.670Z,16.20
2022-09-21T08:58:22.213Z,16.20
2022-09-21T09:01:01.337Z,16.20
2022-09-21T09:03:54.678Z,16.20
2022-09-21T09:06:32.722Z,16.30
2022-09-21T09:09:23.047Z,16.30
2022-09-21T09:12:02.359Z,16.20
2022-09-21T09:14:51.275Z,16.30
2022-09-21T09:17:28.213Z,16.30
2022-09-21T09:20:01.446Z,16.30
2022-09-21T09:22:35.458Z,16.30
2022-09-21T09:25:06.992Z,16.30
2022-09-21T09:27:38.855Z,16.30
2022-09-21T09:30:15.806Z,16.30
2022-09-21T09:32:53.245Z,16.30
2022-09-21T09:35:27.741Z,16.30
2022-09-21T09:38:00.984Z,16.30
2022-09-21T09:40:45.857Z,16.40
2022-09-21T09:43:23.758Z,16.40
2022-09-21T09:45:59.887Z,16.40
2022-09-21T09:48:43.686Z,16.40
2022-09-21T09:51:13.607Z,16.40
2022-09-21T09:53:42.984Z,16.50
2022-09-21T09:56:14.727Z,16.50
2022-09-21T09:58:49.582Z,16.50
2022-09-21T10:01:39.888Z,16.50
2022-09-21T10:04:10.786Z,16.50
2022-09-21T10:06:43.723Z,16.60
2022-09-21T10:09:24.918Z,16.60
2022-09-21T10:11:53.743Z,16.60
2022-09-21T10:14:24.927Z,16.70
2022-09-21T10:16:54.290Z,16.70
2022-09-21T10:19:24.451Z,16.70
2022-09-21T10:21:58.034Z,16.70
2022-09-21T10:24:31.121Z,16.70
2022-09-21T10:27:06.290Z,16.70
2022-09-21T10:29:42.100Z,16.80
2022-09-21T10:32:26.393Z,16.80
2022-09-21T10:35:15.961Z,16.80
2022-09-21T10:37:46.397Z,16.90
2022-09-21T10:40:27.284Z,16.90
2022-09-21T10:42:58.523Z,16.90
2022-09-21T10:45:28.800Z,17.00
2022-09-21T10:47:58.957Z,17.00
2022-09-21T10:50:29.779Z,17.00
2022-09-21T10:53:01.706Z,17.00
2022-09-21T10:55:32.897Z,17.00
2022-09-21T10:58:01.592Z,17.00
2022-09-21T11:00:41.281Z,17.00
2022-09-21T11:03:41.633Z,17.00
2022-09-21T11:06:17.141Z,17.10
2022-09-21T11:08:51.646Z,17.10
2022-09-21T11:11:36.752Z,17.10
2022-09-21T11:14:15.491Z,17.10
2022-09-21T11:16:49.682Z,17.10
2022-09-21T11:19:26.253Z,17.10
2022-09-21T11:22:01.633Z,17.20
2022-09-21T11:24:43.403Z,17.20
2022-09-21T11:27:16.708Z,17.20
2022-09-21T11:29:52.844Z,17.30
2022-09-21T11:32:33.644Z,17.30
2022-09-21T11:35:19.537Z,17.40
2022-09-21T11:37:56.674Z,17.40
2022-09-21T11:40:40.412Z,17.50
2022-09-21T11:43:29.138Z,17.50
2022-09-21T11:46:06.796Z,17.50
2022-09-21T11:48:53.245Z,17.60
2022-09-21T11:51:38.612Z,17.60
2022-09-21T11:54:39.092Z,17.60
2022-09-21T11:57:16.922Z,17.60
2022-09-21T12:00:00.312Z,17.60
2022-09-21T12:02:46.290Z,17.60
2022-09-21T12:05:22.942Z,17.60
2022-09-21T12:08:11.472Z,17.60
2022-09-21T12:10:49.784Z,17.60
2022-09-21T12:13:28.628Z,17.60
2022-09-21T12:16:05.714Z,17.60
2022-09-21T12:18:45.335Z,17.60
2022-09-21T12:21:17.752Z,17.60
2022-09-21T12:23:50.000Z,17.60
2022-09-21T12:26:21.872Z,17.70
2022-09-21T12:28:53.550Z,17.70
2022-09-21T12:31:26.591Z,17.70
2022-09-21T12:33:59.023Z,17.70
2022-09-21T12:36:32.359Z,17.60
2022-09-21T12:39:07.462Z,17.70
2022-09-21T12:41:43.660Z,17.70
2022-09-21T12:44:20.664Z,17.70
2022-09-21T12:46:56.321Z,17.70
2022-09-21T12:49:29.796Z,17.60
2022-09-21T12:52:01.660Z,17.60
2022-09-21T12:54:37.879Z,17.60
2022-09-21T12:57:38.214Z,17.60
2022-09-21T13:00:07.169Z,17.60
2022-09-21T13:05:24.980Z,17.50
2022-09-21T13:08:04.759Z,17.60
2022-09-21T13:10:42.283Z,17.60
2022-09-21T13:13:23.247Z,17.50
2022-09-21T13:15:52.150Z,17.50
2022-09-21T13:18:25.792Z,17.50
2022-09-21T13:20:55.598Z,17.50
2022-09-21T13:23:27.567Z,17.50
2022-09-21T13:26:02.823Z,17.50
2022-09-21T13:29:01.098Z,17.50
2022-09-21T13:31:57.640Z,17.50
2022-09-21T13:34:35.501Z,17.50
2022-09-21T13:37:28.384Z,17.50
2022-09-21T13:40:38.945Z,17.50
2022-09-21T13:43:58.545Z,17.40
2022-09-21T13:47:02.780Z,17.40
2022-09-21T13:49:58.368Z,17.40
2022-09-21T13:52:39.366Z,17.40
2022-09-21T13:55:25.287Z,17.40
2022-09-21T13:57:56.697Z,17.40
2022-09-21T14:00:41.143Z,17.40
2022-09-21T14:03:23.052Z,17.40
2022-09-21T14:05:54.507Z,17.40
2022-09-21T14:08:27.981Z,17.40
2022-09-21T14:10:59.877Z,17.40
2022-09-21T14:13:33.708Z,17.40
2022-09-21T14:16:45.079Z,17.40
2022-09-21T14:20:07.958Z,17.50
2022-09-21T14:22:39.679Z,17.50
2022-09-21T14:25:32.104Z,17.50
2022-09-21T14:28:05.931Z,17.40
2022-09-21T14:30:36.771Z,17.50
2022-09-21T14:33:35.287Z,17.40
2022-09-21T14:36:09.532Z,17.50
2022-09-21T14:38:51.571Z,17.40
2022-09-21T14:41:23.900Z,17.50
2022-09-21T14:43:57.219Z,17.50
2022-09-21T14:46:49.429Z,17.40
2022-09-21T14:49:38.609Z,17.40
2022-09-21T14:52:22.470Z,17.40
2022-09-21T14:55:10.402Z,17.50
2022-09-21T14:58:08.454Z,17.40
2022-09-21T15:00:42.796Z,17.40
2022-09-21T15:03:43.198Z,17.50
2022-09-21T15:06:44.689Z,17.40
2022-09-21T15:09:49.096Z,17.40
2022-09-21T15:12:22.327Z,17.40
2022-09-21T15:15:01.393Z,17.40
2022-09-21T15:17:31.314Z,17.40
2022-09-21T15:20:00.769Z,17.40
2022-09-21T15:22:29.848Z,17.40
2022-09-21T15:25:02.747Z,17.40
2022-09-21T15:27:33.982Z,17.50
2022-09-21T15:30:05.404Z,17.50
2022-09-21T15:32:38.838Z,17.50
2022-09-21T15:35:17.183Z,17.50
2022-09-21T15:37:46.679Z,17.50
2022-09-21T15:40:21.998Z,17.50
2022-09-21T15:43:04.372Z,17.60
2022-09-21T15:45:37.191Z,17.60
2022-09-21T15:48:10.931Z,17.60
2022-09-21T15:50:39.381Z,17.60
2022-09-21T15:53:15.824Z,17.60
2022-09-21T15:55:47.983Z,17.60
2022-09-21T15:58:35.006Z,17.60
2022-09-21T16:01:05.375Z,17.60
2022-09-21T16:03:33.611Z,17.70
2022-09-21T16:06:22.960Z,17.70
2022-09-21T16:08:51.484Z,17.70
2022-09-21T16:11:25.034Z,17.70
2022-09-21T16:14:21.163Z,17.70
2022-09-21T16:17:24.210Z,17.70
2022-09-21T16:20:23.308Z,17.60
2022-09-21T16:22:54.754Z,17.70
2022-09-21T16:25:34.563Z,17.60
2022-09-21T16:28:04.657Z,17.60
2022-09-21T16:30:42.294Z,17.60
2022-09-21T16:33:40.888Z,17.60
2022-09-21T16:36:42.474Z,17.50
2022-09-21T16:39:15.542Z,17.50
2022-09-21T16:41:48.313Z,17.50
2022-09-21T16:44:20.776Z,17.40
2022-09-21T16:46:54.712Z,17.40
2022-09-21T16:49:28.017Z,17.40
2022-09-21T16:51:59.268Z,17.40
2022-09-21T16:54:28.471Z,17.30
2022-09-21T16:56:59.371Z,17.30
2022-09-21T16:59:27.889Z,17.20
2022-09-21T17:01:59.040Z,17.20
2022-09-21T17:04:28.737Z,17.10
2022-09-21T17:06:57.266Z,17.10
2022-09-21T17:09:29.812Z,17.00
2022-09-21T17:12:00.125Z,17.00
2022-09-21T17:14:29.809Z,16.90
2022-09-21T17:17:00.650Z,16.90
2022-09-21T17:19:28.647Z,16.90
2022-09-21T17:21:56.856Z,16.80
2022-09-21T17:24:48.830Z,16.70
2022-09-21T17:27:15.128Z,16.70
2022-09-21T17:29:47.975Z,16.80
2022-09-21T17:32:20.398Z,16.80
2022-09-21T17:34:53.156Z,16.70
2022-09-21T17:37:21.775Z,16.70
2022-09-21T17:39:50.076Z,16.60
2022-09-21T17:42:21.069Z,16.40
2022-09-21T17:45:13.390Z,16.50
2022-09-21T17:47:43.107Z,16.60
2022-09-21T17:50:22.911Z,16.50
2022-09-21T17:53:08.877Z,16.40
2022-09-21T17:55:37.304Z,16.40
2022-09-21T17:58:16.468Z,16.30
2022-09-21T18:00:53.020Z,16.20
2022-09-21T18:03:24.805Z,16.20
2022-09-21T18:05:59.276Z,16.20
2022-09-21T18:08:27.898Z,16.10
2022-09-21T18:11:13.501Z,16.10
2022-09-21T18:13:52.083Z,16.10
2022-09-21T18:16:28.001Z,16.00
2022-09-21T18:19:04.890Z,16.00
2022-09-21T18:21:40.728Z,16.00
2022-09-21T18:24:25.446Z,15.90
2022-09-21T18:26:57.891Z,15.90
2022-09-21T18:29:40.773Z,15.90
2022-09-21T18:32:39.560Z,15.80
2022-09-21T18:35:24.627Z,15.90
2022-09-21T18:38:03.355Z,15.80
2022-09-21T18:40:37.820Z,15.80
2022-09-21T18:43:23.026Z,15.70
2022-09-21T18:45:56.456Z,15.70
2022-09-21T18:48:36.750Z,15.70
2022-09-21T18:51:17.853Z,15.70
2022-09-21T18:53:54.109Z,15.60
2022-09-21T18:56:23.593Z,15.60
2022-09-21T18:58:53.414Z,15.60
2022-09-21T19:01:23.680Z,15.60
2022-09-21T19:03:52.446Z,15.60
2022-09-21T19:06:38.130Z,15.60
2022-09-21T19:09:21.079Z,15.60
2022-09-21T19:11:56.143Z,15.60
2022-09-21T19:14:33.901Z,15.50
2022-09-21T19:17:14.844Z,15.50
2022-09-21T19:19:58.982Z,15.50
2022-09-21T19:22:35.820Z,15.60
2022-09-21T19:25:08.748Z,15.60
2022-09-21T19:27:40.007Z,15.60
2022-09-21T19:30:11.923Z,15.60
2022-09-21T19:32:44.806Z,15.50
2022-09-21T19:35:20.306Z,15.50
2022-09-21T19:37:52.101Z,15.50
2022-09-21T19:40:22.912Z,15.50
2022-09-21T19:43:04.561Z,15.50
2022-09-21T19:45:42.158Z,15.40
2022-09-21T19:48:14.631Z,15.40
2022-09-21T19:50:47.033Z,15.30
2022-09-21T19:53:34.845Z,15.40
2022-09-21T19:56:21.163Z,15.50
2022-09-21T19:59:07.193Z,15.50
2022-09-21T20:01:42.516Z,15.40
2022-09-21T20:04:14.949Z,15.50
2022-09-21T20:06:46.572Z,15.40
2022-09-21T20:09:20.145Z,15.30
2022-09-21T20:11:54.549Z,15.20
2022-09-21T20:14:32.667Z,15.30
2022-09-21T20:17:04.761Z,15.30
2022-09-21T20:19:43.923Z,15.20
2022-09-21T20:22:14.947Z,15.10
2022-09-21T20:24:54.121Z,15.20
2022-09-21T20:27:34.704Z,15.30
2022-09-21T20:30:02.842Z,15.20
2022-09-21T20:32:31.774Z,15.20
2022-09-21T20:34:59.780Z,15.20
2022-09-21T20:37:30.134Z,15.20
2022-09-21T20:39:59.460Z,15.20
2022-09-21T20:42:27.578Z,15.20
2022-09-21T20:44:55.604Z,15.20
2022-09-21T20:47:23.723Z,15.10
2022-09-21T20:49:51.779Z,15.00
2022-09-21T20:52:20.042Z,15.00
2022-09-21T20:54:49.559Z,14.90
2022-09-21T20:57:20.070Z,14.90
2022-09-21T20:59:48.104Z,14.90
2022-09-21T21:02:17.292Z,14.90
2022-09-21T21:04:45.343Z,14.90
2022-09-21T21:07:13.389Z,15.00
2022-09-21T21:09:41.402Z,14.90
2022-09-21T21:12:10.285Z,14.90
2022-09-21T21:14:39.666Z,14.80
2022-09-21T21:17:07.870Z,14.70
2022-09-21T21:19:36.119Z,14.70
2022-09-21T21:22:04.210Z,14.70
2022-09-21T21:24:41.019Z,14.70
2022-09-21T21:27:11.453Z,14.80
2022-09-21T21:29:40.823Z,14.80
2022-09-21T21:32:08.898Z,14.80
2022-09-21T21:34:36.963Z,14.70
2022-09-21T21:37:05.264Z,14.60
2022-09-21T21:39:33.760Z,14.50
2022-09-21T21:42:01.867Z,14.50
2022-09-21T21:44:31.082Z,14.60
2022-09-21T21:47:20.956Z,14.60
2022-09-21T21:49:48.439Z,14.60
2022-09-21T21:52:16.592Z,14.60
2022-09-21T21:54:44.592Z,14.60
2022-09-21T21:57:13.986Z,14.60
2022-09-21T21:59:43.766Z,14.60
2022-09-21T22:02:13.213Z,14.60
2022-09-21T22:04:42.121Z,14.60
2022-09-21T22:07:10.160Z,14.60
2022-09-21T22:09:38.582Z,14.60
2022-09-21T22:12:06.932Z,14.60
2022-09-21T22:14:34.983Z,14.60
2022-09-21T22:17:03.033Z,14.50
2022-09-21T22:19:32.928Z,14.50
2022-09-21T22:22:00.942Z,14.50
2022-09-21T22:24:29.597Z,14.50
2022-09-21T22:26:57.715Z,14.50
2022-09-21T22:29:25.758Z,14.50
2022-09-21T22:31:55.199Z,14.50
2022-09-21T22:34:23.377Z,14.50
2022-09-21T22:36:53.784Z,14.50
2022-09-21T22:39:21.828Z,14.50
2022-09-21T22:41:49.828Z,14.50
2022-09-21T22:44:17.850Z,14.50
2022-09-21T22:46:45.856Z,14.40
2022-09-21T22:49:13.848Z,14.50
2022-09-21T22:51:41.852Z,14.50
2022-09-21T22:54:11.192Z,14.50
2022-09-21T22:56:39.223Z,14.30
2022-09-21T22:59:07.401Z,14.30
2022-09-21T23:01:37.449Z,14.30
2022-09-21T23:04:07.955Z,14.20
2022-09-21T23:06:37.611Z,14.30
2022-09-21T23:09:07.687Z,14.40
2022-09-21T23:11:38.986Z,14.20
2022-09-21T23:14:07.031Z,14.20
2022-09-21T23:16:35.422Z,14.10
2022-09-21T23:19:03.559Z,14.10
2022-09-21T23:21:32.020Z,14.00
2022-09-21T23:24:02.707Z,14.10
2022-09-21T23:26:33.907Z,14.20
2022-09-21T23:29:05.935Z,14.10
2022-09-21T23:31:34.328Z,14.00
2022-09-21T23:34:07.625Z,14.00
2022-09-21T23:36:37.379Z,14.00
2022-09-21T23:39:07.809Z,13.90
2022-09-21T23:41:37.278Z,13.90
2022-09-21T23:44:06.793Z,13.90
2022-09-21T23:46:36.371Z,13.90
2022-09-21T23:49:05.195Z,13.90
2022-09-21T23:51:33.675Z,13.90
2022-09-21T23:54:02.193Z,14.00
2022-09-21T23:56:31.677Z,14.00
2022-09-21T23:59:00.254Z,13.90
